Time;durP1;ratioP1;P1;durP2;ratioP2;P2;SDS_P1;SDS_P2;PMS_P1;PMS_P2;Temp;Humidity;BMP_temperature;BMP_pressure;BME280_temperature;BME280_humidity;BME280_pressure;Samples;Min_cycle;Max_cycle;Signal;HPM_P1;HPM_P2
2021/04/30 00:01:00;;;;;;;5.45;2.97;;;17.70;53.50;;;;;;6245135;23;20417;-75
2021/04/30 00:03:26;;;;;;;4.72;2.90;;;17.60;53.40;;;;;;6244900;23;20054;-75
2021/04/30 00:05:52;;;;;;;3.90;2.90;;;17.60;53.40;;;;;;6245008;23;20016;-75
2021/04/30 00:08:17;;;;;;;4.80;2.55;;;17.60;53.40;;;;;;6245498;23;20012;-75
2021/04/30 00:10:44;;;;;;;6.43;2.95;;;17.60;53.30;;;;;;6244908;23;20062;-75
2021/04/30 00:13:10;;;;;;;4.95;2.55;;;17.60;53.30;;;;;;6244944;23;20314;-75
2021/04/30 00:15:36;;;;;;;4.25;2.80;;;17.60;53.40;;;;;;6244958;23;20344;-75
2021/04/30 00:18:05;;;;;;;5.03;2.90;;;17.50;53.30;;;;;;6243414;23;20011;-75
2021/04/30 00:20:36;;;;;;;4.13;2.50;;;17.50;53.20;;;;;;6245111;23;20460;-75
2021/04/30 00:23:03;;;;;;;4.40;2.40;;;17.50;53.30;;;;;;6245044;23;20008;-75
2021/04/30 00:25:29;;;;;;;4.60;2.90;;;17.50;53.20;;;;;;6244697;23;20011;-75
2021/04/30 00:27:55;;;;;;;4.40;2.65;;;17.50;53.20;;;;;;6244868;23;20007;-75
2021/04/30 00:30:21;;;;;;;3.83;2.58;;;17.50;53.20;;;;;;6245115;23;20028;-75
2021/04/30 00:32:47;;;;;;;4.45;2.88;;;17.40;53.70;;;;;;6245338;23;19996;-75
2021/04/30 00:35:13;;;;;;;3.60;2.70;;;17.40;53.10;;;;;;6244530;23;20111;-75
2021/04/30 00:37:39;;;;;;;4.50;3.05;;;17.40;53.00;;;;;;6244729;23;20063;-75
2021/04/30 00:40:10;;;;;;;5.88;2.78;;;17.40;53.00;;;;;;6244783;23;20020;-75
2021/04/30 00:42:36;;;;;;;4.78;2.33;;;17.40;53.00;;;;;;6244968;23;20027;-76
2021/04/30 00:45:06;;;;;;;4.57;2.50;;;17.40;53.00;;;;;;6244488;23;20004;-75
2021/04/30 00:47:36;;;;;;;3.72;2.97;;;17.30;53.00;;;;;;6243125;23;20012;-75
2021/04/30 00:50:08;;;;;;;3.63;2.85;;;17.30;52.90;;;;;;6244656;23;20007;-75
2021/04/30 00:52:35;;;;;;;3.72;2.53;;;17.30;52.90;;;;;;6244706;23;20075;-75
2021/04/30 00:55:03;;;;;;;7.20;3.17;;;17.30;53.00;;;;;;6244589;23;20073;-75
2021/04/30 00:57:29;;;;;;;4.18;2.85;;;17.30;52.90;;;;;;6244358;23;20039;-74
2021/04/30 00:59:54;;;;;;;4.90;2.83;;;17.20;52.80;;;;;;6243197;23;20000;-75
2021/04/30 01:02:20;;;;;;;4.20;2.40;;;17.20;52.90;;;;;;6245050;23;20000;-74
2021/04/30 01:04:46;;;;;;;3.75;2.33;;;17.20;52.80;;;;;;6242882;23;20030;-74
2021/04/30 01:07:11;;;;;;;5.00;2.53;;;17.20;52.80;;;;;;6244385;23;20066;-73
2021/04/30 01:09:37;;;;;;;4.28;2.60;;;17.20;52.80;;;;;;6244456;23;20038;-73
2021/04/30 01:12:04;;;;;;;3.72;2.45;;;17.20;52.80;;;;;;6244284;23;20004;-74
2021/04/30 01:14:30;;;;;;;3.67;2.53;;;17.20;52.80;;;;;;6244774;23;20065;-74
2021/04/30 01:16:55;;;;;;;4.43;2.70;;;17.20;52.80;;;;;;6244449;23;20442;-75
2021/04/30 01:19:25;;;;;;;4.63;2.30;;;17.10;52.60;;;;;;6244795;23;20015;-74
2021/04/30 01:21:56;;;;;;;4.05;2.80;;;17.10;52.60;;;;;;6244784;23;20071;-74
2021/04/30 01:24:22;;;;;;;3.50;2.33;;;17.10;52.60;;;;;;6244686;23;20340;-74
2021/04/30 01:26:48;;;;;;;4.35;2.80;;;17.10;52.50;;;;;;6242452;23;20356;-74
2021/04/30 01:29:15;;;;;;;3.63;2.42;;;17.10;52.50;;;;;;6244503;23;20000;-74
2021/04/30 01:31:42;;;;;;;4.40;2.33;;;17.10;52.50;;;;;;6244304;23;20436;-74
2021/04/30 01:34:07;;;;;;;4.25;2.60;;;17.10;53.00;;;;;;6244307;23;20455;-74
2021/04/30 01:36:33;;;;;;;4.65;2.55;;;17.10;52.40;;;;;;6244102;23;20004;-74
2021/04/30 01:39:02;;;;;;;4.00;3.10;;;17.00;52.40;;;;;;6244102;23;20073;-74
2021/04/30 01:41:27;;;;;;;3.03;2.30;;;17.00;52.30;;;;;;6244534;23;20018;-74
2021/04/30 01:43:53;;;;;;;3.65;2.70;;;17.00;52.30;;;;;;6244439;23;20000;-74
2021/04/30 01:46:19;;;;;;;4.05;2.63;;;17.00;52.20;;;;;;6243387;23;20008;-74
2021/04/30 01:48:44;;;;;;;4.30;2.75;;;17.00;52.30;;;;;;6244152;23;20001;-74
2021/04/30 01:51:10;;;;;;;3.70;2.28;;;17.00;52.30;;;;;;6244030;23;20057;-74
2021/04/30 01:53:37;;;;;;;8.13;3.50;;;17.00;52.20;;;;;;6244115;23;20071;-74
2021/04/30 01:56:11;;;;;;;5.03;2.40;;;16.90;52.20;;;;;;6244453;23;20345;-74
2021/04/30 01:58:38;;;;;;;4.47;2.60;;;16.90;52.20;;;;;;6244127;23;20079;-74
2021/04/30 02:01:05;;;;;;;3.55;2.20;;;16.90;52.20;;;;;;6243868;23;20000;-74
2021/04/30 02:03:31;;;;;;;4.38;2.78;;;16.90;52.20;;;;;;6243978;23;20003;-74
2021/04/30 02:05:57;;;;;;;5.53;2.72;;;16.90;52.10;;;;;;6244138;23;20012;-74
2021/04/30 02:08:22;;;;;;;3.67;2.67;;;16.80;52.00;;;;;;6244162;23;20000;-74
2021/04/30 02:10:49;;;;;;;3.88;2.55;;;16.80;52.00;;;;;;6244441;23;20015;-74
2021/04/30 02:13:19;;;;;;;4.65;2.50;;;16.80;52.00;;;;;;6244247;23;20074;-74
2021/04/30 02:15:46;;;;;;;4.00;2.70;;;16.80;52.00;;;;;;6244183;23;20008;-74
2021/04/30 02:18:12;;;;;;;4.05;2.40;;;16.80;52.00;;;;;;6243913;23;20005;-74
2021/04/30 02:20:38;;;;;;;4.00;2.60;;;16.80;51.90;;;;;;6243896;23;20082;-74
2021/04/30 02:23:04;;;;;;;4.30;3.00;;;16.80;51.90;;;;;;6244089;23;20034;-74
2021/04/30 02:25:30;;;;;;;3.50;2.35;;;16.70;51.80;;;;;;6243706;23;20008;-74
2021/04/30 02:27:57;;;;;;;3.80;2.47;;;16.70;51.80;;;;;;6244438;23;20042;-74
2021/04/30 02:30:25;;;;;;;5.93;2.88;;;16.70;51.70;;;;;;6244194;23;20419;-74
2021/04/30 02:32:52;;;;;;;4.95;2.70;;;16.70;51.70;;;;;;6242402;23;20056;-74
2021/04/30 02:35:27;;;;;;;4.40;2.75;;;16.70;51.70;;;;;;6243771;23;20083;-74
2021/04/30 02:37:53;;;;;;;3.45;2.20;;;16.70;51.60;;;;;;6244485;23;20007;-74
2021/04/30 02:40:23;;;;;;;4.55;2.40;;;16.70;51.60;;;;;;6244272;23;20012;-74
2021/04/30 02:42:49;;;;;;;4.40;2.97;;;16.60;51.50;;;;;;6242239;23;20008;-74
2021/04/30 02:45:16;;;;;;;4.97;2.47;;;16.70;51.50;;;;;;6243555;23;20038;-74
2021/04/30 02:47:46;;;;;;;5.05;2.90;;;16.60;51.40;;;;;;6243782;23;20008;-74
2021/04/30 02:50:16;;;;;;;3.45;2.55;;;16.60;51.40;;;;;;6243987;23;20075;-75
2021/04/30 02:52:42;;;;;;;5.47;2.85;;;16.60;51.40;;;;;;6243929;23;20000;-73
2021/04/30 02:55:09;;;;;;;3.63;2.60;;;16.60;51.30;;;;;;6243947;23;20391;-74
2021/04/30 02:57:35;;;;;;;4.60;2.50;;;16.60;51.30;;;;;;6244143;23;19996;-75
2021/04/30 03:00:00;;;;;;;3.88;2.80;;;16.60;51.20;;;;;;6245811;23;20059;-75
2021/04/30 03:02:26;;;;;;;4.40;2.72;;;16.50;51.20;;;;;;6244648;23;20038;-75
2021/04/30 03:04:52;;;;;;;4.60;2.70;;;16.50;51.10;;;;;;6245935;23;20452;-75
2021/04/30 03:07:18;;;;;;;4.05;2.60;;;16.50;51.20;;;;;;6245650;23;20011;-75
2021/04/30 03:09:44;;;;;;;5.45;3.00;;;16.50;51.20;;;;;;6245709;23;20007;-73
2021/04/30 03:12:09;;;;;;;4.13;2.80;;;16.50;51.10;;;;;;6245583;23;20008;-75
2021/04/30 03:14:35;;;;;;;4.35;2.65;;;16.50;51.10;;;;;;6243909;23;20001;-75
2021/04/30 03:17:01;;;;;;;4.95;3.42;;;16.40;51.00;;;;;;6245493;23;20006;-75
2021/04/30 03:19:27;;;;;;;4.68;3.10;;;16.50;51.00;;;;;;6246083;23;20318;-75
2021/04/30 03:21:52;;;;;;;3.72;2.90;;;16.50;50.90;;;;;;6245676;23;20004;-75
2021/04/30 03:24:18;;;;;;;5.38;3.33;;;16.50;50.90;;;;;;6245754;23;20004;-75
2021/04/30 03:26:44;;;;;;;4.88;3.03;;;16.40;50.80;;;;;;6245445;23;20023;-75
2021/04/30 03:29:09;;;;;;;4.13;2.83;;;16.40;50.80;;;;;;6245501;23;19997;-74
2021/04/30 03:31:35;;;;;;;5.75;2.92;;;16.40;50.80;;;;;;6245251;23;20058;-74
2021/04/30 03:34:01;;;;;;;4.80;3.28;;;16.40;50.80;;;;;;6245812;23;20333;-74
2021/04/30 03:36:28;;;;;;;4.53;2.83;;;16.40;50.80;;;;;;6244303;23;20008;-75
2021/04/30 03:38:53;;;;;;;3.65;2.80;;;16.40;50.70;;;;;;6245999;23;20005;-74
2021/04/30 03:41:19;;;;;;;4.75;3.00;;;16.30;50.60;;;;;;6245357;23;20008;-74
2021/04/30 03:43:45;;;;;;;4.80;3.05;;;16.40;50.70;;;;;;6245210;22;20000;-74
2021/04/30 03:46:11;;;;;;;4.13;3.08;;;16.30;50.60;;;;;;6243396;23;20008;-74
2021/04/30 03:48:38;;;;;;;3.90;2.60;;;16.30;50.50;;;;;;6245592;23;20066;-75
2021/04/30 03:51:03;;;;;;;4.30;3.17;;;16.30;50.50;;;;;;6245388;23;19996;-75
2021/04/30 03:53:29;;;;;;;3.78;2.50;;;16.30;50.50;;;;;;6245554;23;20008;-75
2021/04/30 03:55:55;;;;;;;4.95;3.08;;;16.30;50.50;;;;;;6245209;23;20171;-74
2021/04/30 03:58:21;;;;;;;4.45;2.78;;;16.20;50.50;;;;;;6245121;23;20011;-75
2021/04/30 04:00:47;;;;;;;5.05;2.92;;;16.30;51.10;;;;;;6245033;23;20000;-75
2021/04/30 04:03:12;;;;;;;6.25;2.72;;;16.30;50.50;;;;;;6245388;22;20047;-74
2021/04/30 04:05:38;;;;;;;5.80;3.30;;;16.20;50.40;;;;;;6245171;23;20004;-74
2021/04/30 04:08:05;;;;;;;5.30;2.97;;;16.20;50.30;;;;;;6245219;23;20054;-73
2021/04/30 04:10:31;;;;;;;4.20;2.88;;;16.20;50.30;;;;;;6244865;23;20003;-73
2021/04/30 04:12:57;;;;;;;5.13;3.08;;;16.20;50.30;;;;;;6245169;23;20008;-72
2021/04/30 04:15:23;;;;;;;6.22;3.70;;;16.20;50.30;;;;;;6244900;23;20320;-74
2021/04/30 04:17:48;;;;;;;5.55;3.42;;;16.20;50.30;;;;;;6245108;23;20004;-73
2021/04/30 04:20:14;;;;;;;4.72;3.20;;;16.20;50.30;;;;;;6243405;23;20023;-74
2021/04/30 04:22:40;;;;;;;4.45;3.33;;;16.10;50.20;;;;;;6245244;22;20035;-75
2021/04/30 04:25:07;;;;;;;6.05;3.38;;;16.10;50.20;;;;;;6244814;23;20555;-72
2021/04/30 04:27:33;;;;;;;6.15;3.13;;;16.10;50.20;;;;;;6245126;23;20092;-74
2021/04/30 04:29:59;;;;;;;4.78;3.20;;;16.10;50.10;;;;;;6244719;23;20000;-72
2021/04/30 04:32:25;;;;;;;6.18;4.13;;;16.10;50.20;;;;;;6244772;23;20015;-72
2021/04/30 04:34:50;;;;;;;4.53;3.15;;;16.10;50.10;;;;;;6244980;23;20000;-72
2021/04/30 04:37:16;;;;;;;4.38;3.22;;;16.10;50.10;;;;;;6244741;23;20000;-72
2021/04/30 04:39:42;;;;;;;6.38;3.67;;;16.10;50.10;;;;;;6243172;23;20004;-74
2021/04/30 04:42:08;;;;;;;7.20;3.42;;;16.10;50.10;;;;;;6244625;23;20042;-74
2021/04/30 04:44:34;;;;;;;4.15;3.17;;;16.10;50.10;;;;;;6243442;23;20105;-74
2021/04/30 04:47:00;;;;;;;4.30;3.10;;;16.00;50.00;;;;;;6244825;23;20492;-74
2021/04/30 04:49:26;;;;;;;4.82;3.47;;;16.00;50.00;;;;;;6244606;23;20000;-74
2021/04/30 04:51:52;;;;;;;4.47;3.38;;;16.00;50.00;;;;;;6244645;23;20000;-74
2021/04/30 04:54:18;;;;;;;6.10;3.90;;;16.00;50.00;;;;;;6244674;23;20004;-74
2021/04/30 04:56:43;;;;;;;5.72;3.30;;;16.00;49.90;;;;;;6244468;23;20437;-74
2021/04/30 04:59:10;;;;;;;4.28;3.05;;;16.00;49.90;;;;;;6244469;23;20007;-75
2021/04/30 05:01:37;;;;;;;5.10;3.22;;;16.00;49.90;;;;;;6242879;23;20461;-74
2021/04/30 05:04:02;;;;;;;5.50;2.90;;;16.00;49.90;;;;;;6244974;23;20000;-74
2021/04/30 05:06:28;;;;;;;6.18;3.38;;;16.00;49.90;;;;;;6244466;23;20016;-74
2021/04/30 05:08:54;;;;;;;4.72;3.28;;;15.90;49.90;;;;;;6242942;23;20383;-74
2021/04/30 05:11:20;;;;;;;5.50;3.47;;;16.00;49.90;;;;;;6244443;23;20007;-74
2021/04/30 05:13:45;;;;;;;5.20;3.47;;;15.90;49.80;;;;;;6244216;23;20037;-75
2021/04/30 05:16:13;;;;;;;5.80;3.65;;;15.90;49.80;;;;;;6242963;23;20019;-74
2021/04/30 05:18:39;;;;;;;7.45;3.58;;;15.90;49.80;;;;;;6244353;23;20015;-74
2021/04/30 05:21:05;;;;;;;4.65;3.33;;;15.90;49.80;;;;;;6244738;23;20440;-74
2021/04/30 05:23:31;;;;;;;5.25;3.42;;;15.90;49.80;;;;;;6244253;23;19996;-74
2021/04/30 05:25:56;;;;;;;4.90;3.38;;;15.90;49.80;;;;;;6244140;23;20004;-75
2021/04/30 05:28:22;;;;;;;7.72;3.30;;;15.90;49.90;;;;;;6244140;23;20437;-74
2021/04/30 05:30:48;;;;;;;5.05;3.05;;;15.90;49.80;;;;;;6244202;23;20011;-75
2021/04/30 05:33:14;;;;;;;7.00;3.20;;;15.90;49.90;;;;;;6243842;23;20046;-73
2021/04/30 05:35:40;;;;;;;5.95;3.38;;;15.90;50.00;;;;;;6244258;23;20054;-73
2021/04/30 05:38:06;;;;;;;4.72;3.30;;;15.90;50.00;;;;;;6244864;23;20004;-77
2021/04/30 05:40:33;;;;;;;4.15;3.03;;;15.90;50.00;;;;;;6244126;23;20008;-76
2021/04/30 05:43:00;;;;;;;5.93;3.15;;;15.90;50.00;;;;;;6243555;23;20380;-76
2021/04/30 05:45:26;;;;;;;4.53;2.90;;;16.00;49.90;;;;;;6241896;23;20449;-76
2021/04/30 05:47:52;;;;;;;5.72;3.08;;;16.00;49.90;;;;;;6244183;23;20343;-76
2021/04/30 05:50:17;;;;;;;4.78;2.83;;;16.10;49.90;;;;;;6244139;23;20071;-76
2021/04/30 05:52:43;;;;;;;4.55;2.80;;;16.10;49.90;;;;;;6243752;23;20008;-75
2021/04/30 05:55:10;;;;;;;5.75;2.80;;;16.20;50.00;;;;;;6244413;23;20026;-76
2021/04/30 05:57:37;;;;;;;6.38;2.85;;;16.30;50.10;;;;;;6243869;23;20039;-76
2021/04/30 06:00:11;;;;;;;7.82;3.92;;;16.30;50.10;;;;;;6244372;23;20016;-76
2021/04/30 06:02:37;;;;;;;5.82;2.70;;;16.40;50.60;;;;;;6244578;23;20008;-77
2021/04/30 06:05:04;;;;;;;4.93;3.03;;;16.50;50.70;;;;;;6244933;23;20063;-77
2021/04/30 06:07:30;;;;;;;6.22;3.63;;;16.60;50.80;;;;;;6243906;23;20030;-77
2021/04/30 06:09:56;;;;;;;6.22;3.42;;;16.70;50.90;;;;;;6243822;23;19996;-76
2021/04/30 06:12:22;;;;;;;6.22;3.83;;;16.70;51.10;;;;;;6243243;23;20016;-76
2021/04/30 06:14:48;;;;;;;7.15;3.33;;;16.80;51.20;;;;;;6241622;23;20057;-77
2021/04/30 06:17:13;;;;;;;8.55;3.50;;;16.90;51.30;;;;;;6243953;23;20079;-76
2021/04/30 06:19:39;;;;;;;6.40;3.67;;;17.00;51.20;;;;;;6244561;23;20065;-77
2021/04/30 06:22:05;;;;;;;7.72;3.47;;;17.00;50.90;;;;;;6243797;23;20004;-76
2021/04/30 06:24:30;;;;;;;6.55;3.55;;;17.20;51.10;;;;;;6243897;23;20004;-76
2021/04/30 06:26:56;;;;;;;7.55;3.53;;;17.30;51.20;;;;;;6243870;23;20018;-77
2021/04/30 06:29:22;;;;;;;5.35;3.17;;;17.30;51.70;;;;;;6244042;23;20000;-77
2021/04/30 06:31:47;;;;;;;6.40;3.25;;;17.40;52.00;;;;;;6243630;23;20066;-77
2021/04/30 06:34:13;;;;;;;4.25;3.13;;;17.50;52.10;;;;;;6245671;23;19996;-78
2021/04/30 06:36:39;;;;;;;4.93;3.42;;;17.60;51.30;;;;;;6246268;23;20000;-77
2021/04/30 06:39:05;;;;;;;6.25;3.25;;;17.70;51.20;;;;;;6245757;23;20000;-76
2021/04/30 06:41:31;;;;;;;5.10;3.38;;;17.70;51.00;;;;;;6246170;22;20008;-77
2021/04/30 06:43:57;;;;;;;6.13;3.42;;;17.80;50.90;;;;;;6244530;23;20374;-76
2021/04/30 06:46:23;;;;;;;5.82;2.90;;;17.90;50.90;;;;;;6245467;23;20046;-77
2021/04/30 06:48:50;;;;;;;3.72;2.38;;;18.00;50.80;;;;;;6245302;23;20004;-78
2021/04/30 06:51:16;;;;;;;5.35;3.20;;;18.00;50.70;;;;;;6245572;23;20079;-77
2021/04/30 06:53:43;;;;;;;5.55;2.63;;;18.10;50.70;;;;;;6245788;23;20028;-77
2021/04/30 06:56:09;;;;;;;7.10;2.67;;;18.10;50.60;;;;;;6246493;23;20008;-78
2021/04/30 06:58:35;;;;;;;4.03;2.47;;;18.20;50.60;;;;;;6245731;23;20071;-77
2021/04/30 07:01:01;;;;;;;4.90;2.88;;;18.30;50.60;;;;;;6245600;23;20076;-79
2021/04/30 07:03:27;;;;;;;5.68;2.85;;;18.30;50.50;;;;;;6244155;23;20007;-78
2021/04/30 07:05:52;;;;;;;4.32;2.55;;;18.40;50.50;;;;;;6245480;23;20348;-77
2021/04/30 07:08:18;;;;;;;4.80;2.80;;;18.50;50.40;;;;;;6245405;23;20008;-79
2021/04/30 07:10:43;;;;;;;4.32;2.75;;;18.50;50.30;;;;;;6245619;23;20007;-79
2021/04/30 07:13:10;;;;;;;6.90;2.65;;;18.60;50.20;;;;;;6245848;23;20000;-76
2021/04/30 07:15:36;;;;;;;6.10;2.80;;;18.60;50.10;;;;;;6245523;23;20046;-76
2021/04/30 07:18:02;;;;;;;4.85;2.45;;;18.70;50.10;;;;;;6242670;23;20004;-77
2021/04/30 07:20:30;;;;;;;3.72;2.22;;;18.80;50.10;;;;;;6244195;23;20007;-77
2021/04/30 07:22:56;;;;;;;5.03;2.20;;;18.80;50.50;;;;;;6241206;23;20008;-78
2021/04/30 07:25:21;;;;;;;6.30;2.42;;;18.90;49.90;;;;;;6242397;23;20008;-76
2021/04/30 07:27:47;;;;;;;6.15;2.30;;;18.90;49.70;;;;;;6244223;23;20019;-78
2021/04/30 07:30:13;;;;;;;7.40;2.67;;;19.00;49.60;;;;;;6244744;23;20093;-78
2021/04/30 07:32:39;;;;;;;5.35;2.28;;;19.00;49.50;;;;;;6244448;23;20007;-77
2021/04/30 07:35:04;;;;;;;5.55;2.47;;;19.00;49.40;;;;;;6242156;23;20451;-77
2021/04/30 07:37:30;;;;;;;3.75;2.17;;;19.10;49.50;;;;;;6243686;23;20075;-76
2021/04/30 07:39:56;;;;;;;5.07;1.92;;;19.10;49.40;;;;;;6244051;23;20024;-77
2021/04/30 07:42:21;;;;;;;4.28;2.30;;;19.10;49.60;;;;;;6244014;23;20079;-76
2021/04/30 07:44:47;;;;;;;4.38;2.17;;;19.10;49.80;;;;;;6243904;23;20000;-77
2021/04/30 07:47:13;;;;;;;4.28;2.13;;;19.10;49.80;;;;;;6244318;23;20016;-77
2021/04/30 07:49:39;;;;;;;5.32;2.17;;;19.10;50.00;;;;;;6240796;23;20488;-76
2021/04/30 07:52:05;;;;;;;5.82;2.30;;;19.10;50.00;;;;;;6243001;23;20011;-77
2021/04/30 07:54:31;;;;;;;4.38;1.92;;;19.10;50.00;;;;;;6241531;23;20070;-77
2021/04/30 07:56:57;;;;;;;4.10;2.08;;;19.10;50.00;;;;;;6243473;23;20000;-76
2021/04/30 07:59:22;;;;;;;3.90;2.25;;;19.10;50.00;;;;;;6243907;23;19996;-76
2021/04/30 08:01:48;;;;;;;4.47;1.80;;;19.10;50.00;;;;;;6244610;23;20459;-76
2021/04/30 08:04:14;;;;;;;5.68;2.13;;;19.10;50.10;;;;;;6244536;23;20005;-77
2021/04/30 08:06:40;;;;;;;7.68;2.28;;;19.10;50.20;;;;;;6244441;23;20467;-78
2021/04/30 08:09:06;;;;;;;6.47;2.20;;;19.00;50.30;;;;;;6244132;23;20000;-77
2021/04/30 08:11:34;;;;;;;4.40;1.70;;;19.00;50.50;;;;;;6244396;23;20502;-77
2021/04/30 08:14:01;;;;;;;4.32;1.77;;;19.00;50.70;;;;;;6244471;23;20063;-77
2021/04/30 08:16:26;;;;;;;9.18;3.08;;;19.00;50.50;;;;;;6244550;23;20004;-76
2021/04/30 08:18:52;;;;;;;7.65;2.85;;;19.00;50.40;;;;;;6244601;23;20027;-76
2021/04/30 08:21:18;;;;;;;6.35;3.00;;;19.00;50.80;;;;;;6244240;23;20012;-77
2021/04/30 08:23:43;;;;;;;5.50;2.78;;;18.90;50.80;;;;;;6244752;23;20023;-76
2021/04/30 08:26:09;;;;;;;5.03;2.88;;;18.90;50.70;;;;;;6244079;23;20016;-77
2021/04/30 08:28:35;;;;;;;6.57;2.72;;;18.90;50.70;;;;;;6243100;23;20010;-77
2021/04/30 08:31:00;;;;;;;6.43;2.75;;;18.90;50.50;;;;;;6242998;23;20429;-77
2021/04/30 08:33:26;;;;;;;4.25;2.70;;;18.90;50.30;;;;;;6244222;23;19996;-78
2021/04/30 08:35:53;;;;;;;3.47;2.08;;;19.00;50.40;;;;;;6243992;23;20000;-79
2021/04/30 08:38:19;;;;;;;7.07;2.70;;;19.00;50.40;;;;;;6244085;23;20004;-77
2021/04/30 08:40:47;;;;;;;6.75;3.10;;;18.90;50.30;;;;;;6244417;23;20380;-77
2021/04/30 08:43:18;;;;;;;5.05;2.40;;;18.90;50.50;;;;;;6244109;23;20441;-76
2021/04/30 08:45:43;;;;;;;4.28;2.22;;;18.90;50.70;;;;;;6244056;23;20007;-76
2021/04/30 08:48:11;;;;;;;6.03;2.65;;;18.90;50.60;;;;;;6243804;23;20012;-79
2021/04/30 08:50:37;;;;;;;5.03;2.47;;;18.90;50.50;;;;;;6242422;23;20082;-77
2021/04/30 08:53:05;;;;;;;5.43;2.38;;;18.90;50.40;;;;;;6243719;23;20027;-77
2021/04/30 08:55:32;;;;;;;3.13;1.73;;;18.90;50.40;;;;;;6243891;23;20000;-77
2021/04/30 08:57:58;;;;;;;5.35;2.05;;;18.90;50.40;;;;;;6243854;23;20007;-78
2021/04/30 09:00:25;;;;;;;4.15;2.20;;;18.90;50.40;;;;;;6242430;23;20345;-77
2021/04/30 09:02:51;;;;;;;3.75;2.15;;;18.90;50.40;;;;;;6243225;23;20329;-77
2021/04/30 09:05:28;;;;;;;5.68;2.05;;;18.90;50.50;;;;;;6243793;23;20079;-76
2021/04/30 09:07:59;;;;;;;4.55;2.45;;;18.80;50.60;;;;;;6244003;23;20000;-75
2021/04/30 09:10:36;;;;;;;5.55;2.10;;;18.80;50.60;;;;;;6243728;23;20030;-77
2021/04/30 09:13:07;;;;;;;4.35;2.08;;;18.80;50.70;;;;;;6243641;23;20000;-82
2021/04/30 09:15:34;;;;;;;5.18;1.70;;;18.80;50.70;;;;;;6243671;23;19996;-76
2021/04/30 09:18:19;;;;;;;3.88;1.92;;;18.80;50.80;;;;;;6243631;23;20031;-75
2021/04/30 09:20:47;;;;;;;4.75;2.42;;;18.80;50.70;;;;;;6244258;23;20000;-75
2021/04/30 09:23:36;;;;;;;3.88;1.83;;;18.80;50.70;;;;;;6243441;23;20000;-76
2021/04/30 09:26:29;;;;;;;5.50;1.77;;;18.80;50.60;;;;;;6243573;23;20099;-76
2021/04/30 09:29:03;;;;;;;7.97;1.70;;;18.80;50.70;;;;;;6240836;23;20004;-76
2021/04/30 09:31:39;;;;;;;2.50;1.50;;;18.80;50.70;;;;;;6243741;23;20004;-76
2021/04/30 09:34:26;;;;;;;5.55;1.65;;;18.80;50.70;;;;;;6242777;23;20011;-76
2021/04/30 09:36:54;;;;;;;;;;;18.80;50.60;;;;;;6243147;23;19996;-76
2021/04/30 09:39:20;;;;;;;3.20;1.45;;;18.80;50.60;;;;;;6243726;23;19938;-76
2021/04/30 09:42:05;;;;;;;5.85;1.60;;;18.90;50.60;;;;;;6244107;23;20032;-75
2021/04/30 09:44:38;;;;;;;3.55;1.65;;;18.90;50.60;;;;;;6244247;23;20004;-74
2021/04/30 09:47:16;;;;;;;4.70;1.60;;;19.00;50.70;;;;;;6244161;23;20083;-76
2021/04/30 09:49:43;;;;;;;4.47;1.70;;;19.00;50.60;;;;;;6243941;23;20087;-75
2021/04/30 09:52:08;;;;;;;4.45;1.50;;;19.10;50.70;;;;;;6244168;23;20373;-76
2021/04/30 09:54:36;;;;;;;5.93;1.90;;;19.10;50.50;;;;;;6242359;23;20000;-76
2021/04/30 09:57:16;;;;;;;5.97;1.80;;;19.20;50.60;;;;;;6243606;23;20000;-74
2021/04/30 09:59:52;;;;;;;8.52;1.75;;;19.20;50.60;;;;;;6242374;23;20058;-74
2021/04/30 10:02:19;;;;;;;4.05;1.73;;;19.30;50.60;;;;;;6244492;23;20011;-75
2021/04/30 10:04:46;;;;;;;5.90;1.90;;;19.40;50.50;;;;;;6244068;23;20380;-75
2021/04/30 10:07:26;;;;;;;8.88;2.08;;;19.50;51.00;;;;;;6243420;23;20008;-74
2021/04/30 10:10:04;;;;;;;7.85;1.98;;;19.50;50.10;;;;;;6244157;23;20417;-74
2021/04/30 10:12:31;;;;;;;4.65;2.03;;;19.60;50.00;;;;;;6244030;23;20001;-75
2021/04/30 10:14:57;;;;;;;8.93;1.83;;;19.70;49.90;;;;;;6243832;23;20515;-75
2021/04/30 10:17:23;;;;;;;4.05;1.52;;;19.80;50.00;;;;;;6243692;23;20031;-79
2021/04/30 10:19:50;;;;;;;5.82;1.85;;;19.80;49.90;;;;;;6244198;23;20027;-76
2021/04/30 10:22:20;;;;;;;7.45;2.00;;;19.90;49.80;;;;;;6244446;23;20000;-75
2021/04/30 10:24:53;;;;;;;2.85;1.30;;;20.00;49.70;;;;;;6244379;23;20313;-75
2021/04/30 10:27:27;;;;;;;6.40;1.50;;;20.00;49.70;;;;;;6243246;23;20016;-75
2021/04/30 10:30:13;;;;;;;5.38;1.38;;;20.00;49.60;;;;;;6243291;23;19997;-75
2021/04/30 10:33:07;;;;;;;3.58;1.52;;;20.10;49.60;;;;;;6243448;23;20011;-76
2021/04/30 10:35:39;;;;;;;5.43;1.52;;;20.20;50.00;;;;;;6243255;22;20004;-76
2021/04/30 10:38:12;;;;;;;5.97;1.17;;;20.30;49.40;;;;;;6243854;23;20071;-77
2021/04/30 10:41:04;;;;;;;3.75;1.52;;;20.30;49.30;;;;;;6243843;23;20046;-77
2021/04/30 10:43:31;;;;;;;2.30;1.05;;;20.40;49.30;;;;;;6243160;23;20083;-76
2021/04/30 10:46:04;;;;;;;6.22;1.23;;;20.40;49.30;;;;;;6243694;23;20066;-77
2021/04/30 10:48:31;;;;;;;7.00;1.27;;;20.50;49.20;;;;;;6242044;23;20028;-77
2021/04/30 10:51:11;;;;;;;4.53;1.02;;;20.50;49.20;;;;;;6243780;23;20452;-77
2021/04/30 10:53:37;;;;;;;4.30;1.27;;;20.50;49.20;;;;;;6242227;23;20381;-76
2021/04/30 10:56:26;;;;;;;4.95;1.27;;;20.60;49.40;;;;;;6243678;23;19996;-76
2021/04/30 10:58:52;;;;;;;4.32;1.52;;;20.60;49.40;;;;;;6243880;22;20004;-76
2021/04/30 11:01:34;;;;;;;5.80;1.73;;;20.60;49.30;;;;;;6243920;23;20456;-77
2021/04/30 11:04:12;;;;;;;6.28;1.60;;;20.60;49.40;;;;;;6243831;23;20085;-77
2021/04/30 11:06:43;;;;;;;4.70;1.27;;;20.60;49.60;;;;;;6243734;23;20432;-77
2021/04/30 11:09:13;;;;;;;4.55;1.15;;;20.60;49.80;;;;;;6243730;23;20459;-77
2021/04/30 11:11:44;;;;;;;4.20;1.35;;;20.70;50.00;;;;;;6243638;23;20397;-77
2021/04/30 11:14:19;;;;;;;2.78;1.45;;;20.60;50.20;;;;;;6243400;23;20441;-76
2021/04/30 11:16:45;;;;;;;4.10;1.27;;;20.60;50.40;;;;;;6243798;23;20028;-73
2021/04/30 11:19:11;;;;;;;2.58;1.50;;;20.60;50.20;;;;;;6244561;22;19996;-76
2021/04/30 11:21:41;;;;;;;6.93;1.30;;;20.60;50.20;;;;;;6245490;23;20000;-76
2021/04/30 11:24:28;;;;;;;5.50;1.50;;;20.60;50.30;;;;;;6245448;23;20488;-76
2021/04/30 11:27:21;;;;;;;1.95;1.08;;;20.60;50.60;;;;;;6245165;23;20019;-76
2021/04/30 11:29:47;;;;;;;3.15;1.20;;;20.60;50.70;;;;;;6243594;23;20007;-76
2021/04/30 11:32:28;;;;;;;3.03;1.33;;;20.60;50.50;;;;;;6245441;23;20000;-74
2021/04/30 11:34:59;;;;;;;3.70;1.45;;;20.60;50.50;;;;;;6245642;23;20000;-75
2021/04/30 11:37:26;;;;;;;3.20;1.85;;;20.60;50.50;;;;;;6243525;23;20054;-75
2021/04/30 11:39:54;;;;;;;2.90;1.10;;;20.60;50.60;;;;;;6246574;23;20059;-77
2021/04/30 11:42:26;;;;;;;3.17;1.50;;;20.60;50.50;;;;;;6245931;23;20421;-76
2021/04/30 11:44:52;;;;;;;3.92;1.10;;;20.60;50.40;;;;;;6246231;23;20000;-75
2021/04/30 11:47:18;;;;;;;2.03;1.20;;;20.50;50.40;;;;;;6245188;23;20012;-75
2021/04/30 11:49:44;;;;;;;2.35;1.10;;;20.50;50.40;;;;;;6245338;23;20362;-76
2021/04/30 11:52:14;;;;;;;2.15;1.20;;;20.50;50.50;;;;;;6245859;23;20000;-75
2021/04/30 11:54:41;;;;;;;4.78;1.83;;;20.40;50.40;;;;;;6246566;23;20042;-76
2021/04/30 11:57:12;;;;;;;2.20;1.00;;;20.40;50.60;;;;;;6245599;23;20010;-76
2021/04/30 11:59:42;;;;;;;2.50;1.25;;;20.30;50.50;;;;;;6245376;23;20003;-76
2021/04/30 12:02:10;;;;;;;2.42;1.80;;;20.30;50.40;;;;;;6246216;23;20062;-76
2021/04/30 12:04:49;;;;;;;2.17;1.27;;;20.30;50.40;;;;;;6246297;23;20488;-75
2021/04/30 12:07:17;;;;;;;2.42;1.30;;;20.30;50.50;;;;;;6245999;23;20015;-76
2021/04/30 12:09:43;;;;;;;3.92;1.10;;;20.30;50.50;;;;;;6245140;23;20079;-75
2021/04/30 12:12:18;;;;;;;3.53;1.15;;;20.20;50.50;;;;;;6245074;23;20015;-76
2021/04/30 12:14:51;;;;;;;3.10;1.20;;;20.30;50.60;;;;;;6243294;23;20023;-75
2021/04/30 12:17:27;;;;;;;4.15;0.95;;;20.30;50.70;;;;;;6244224;23;20000;-77
2021/04/30 12:20:02;;;;;;;4.80;1.48;;;20.30;50.70;;;;;;6245203;23;20058;-78
2021/04/30 12:22:28;;;;;;;3.55;1.13;;;20.20;50.70;;;;;;6244675;23;20050;-76
2021/04/30 12:25:27;;;;;;;1.85;1.00;;;20.20;50.50;;;;;;6245092;23;20009;-75
2021/04/30 12:27:53;;;;;;;4.03;1.20;;;20.30;50.60;;;;;;6245030;22;20448;-75
2021/04/30 12:30:27;;;;;;;2.55;1.20;;;20.30;50.40;;;;;;6244279;23;20004;-76
2021/04/30 12:32:53;;;;;;;3.58;1.15;;;20.40;50.10;;;;;;6245233;23;20007;-76
2021/04/30 12:35:20;;;;;;;2.75;1.25;;;20.40;50.10;;;;;;6244392;23;20032;-76
2021/04/30 12:37:45;;;;;;;1.80;1.20;;;20.40;49.60;;;;;;6244883;23;20007;-75
2021/04/30 12:40:12;;;;;;;2.00;1.02;;;20.30;50.20;;;;;;6244592;23;19996;-76
2021/04/30 12:42:52;;;;;;;4.35;1.25;;;20.20;50.60;;;;;;6244322;23;20004;-75
2021/04/30 12:45:18;;;;;;;3.33;1.52;;;20.10;50.30;;;;;;6243996;23;20336;-76
2021/04/30 12:47:45;;;;;;;5.18;1.40;;;20.00;50.10;;;;;;6244309;23;20019;-75
2021/04/30 12:50:13;;;;;;;2.78;1.70;;;19.90;50.00;;;;;;6244735;23;20004;-77
2021/04/30 12:52:39;;;;;;;33.78;26.27;;;19.90;50.10;;;;;;6244639;23;20004;-79